sensor_id;sensor_type;location;lat;lon;timestamp;P1;durP1;ratioP1;P2;durP2;ratioP2
49592;SDS011;35499;51.482;4.264;2023-04-24T00:00:14;21.85;;;9.95;;
49592;SDS011;35499;51.482;4.264;2023-04-24T00:02:44;29.30;;;12.27;;
49592;SDS011;35499;51.482;4.264;2023-04-24T00:05:11;23.88;;;10.48;;
49592;SDS011;35499;51.482;4.264;2023-04-24T00:07:38;24.60;;;11.15;;
49592;SDS011;35499;51.482;4.264;2023-04-24T00:10:04;27.60;;;11.63;;
49592;SDS011;35499;51.482;4.264;2023-04-24T00:12:30;25.70;;;11.32;;
49592;SDS011;35499;51.482;4.264;2023-04-24T00:14:55;30.15;;;12.77;;
49592;SDS011;35499;51.482;4.264;2023-04-24T00:17:21;30.93;;;12.23;;
49592;SDS011;35499;51.482;4.264;2023-04-24T00:19:48;34.30;;;14.25;;
49592;SDS011;35499;51.482;4.264;2023-04-24T00:22:17;32.38;;;13.18;;
49592;SDS011;35499;51.482;4.264;2023-04-24T00:24:43;36.30;;;15.25;;
49592;SDS011;35499;51.482;4.264;2023-04-24T00:27:08;29.63;;;11.57;;
49592;SDS011;35499;51.482;4.264;2023-04-24T00:29:33;21.92;;;10.00;;
49592;SDS011;35499;51.482;4.264;2023-04-24T00:31:59;18.48;;;8.18;;
49592;SDS011;35499;51.482;4.264;2023-04-24T00:34:24;20.38;;;8.27;;
49592;SDS011;35499;51.482;4.264;2023-04-24T00:36:50;15.40;;;6.82;;
49592;SDS011;35499;51.482;4.264;2023-04-24T00:41:43;10.07;;;5.75;;
49592;SDS011;35499;51.482;4.264;2023-04-24T00:44:08;19.37;;;6.53;;
49592;SDS011;35499;51.482;4.264;2023-04-24T00:46:33;9.03;;;4.37;;
49592;SDS011;35499;51.482;4.264;2023-04-24T00:48:59;13.52;;;5.95;;
49592;SDS011;35499;51.482;4.264;2023-04-24T00:51:24;16.43;;;5.63;;
49592;SDS011;35499;51.482;4.264;2023-04-24T00:53:50;9.40;;;4.37;;
49592;SDS011;35499;51.482;4.264;2023-04-24T00:56:16;9.23;;;4.15;;
49592;SDS011;35499;51.482;4.264;2023-04-24T00:58:42;9.15;;;3.85;;
49592;SDS011;35499;51.482;4.264;2023-04-24T01:01:08;6.65;;;3.28;;
49592;SDS011;35499;51.482;4.264;2023-04-24T01:03:34;10.70;;;4.30;;
49592;SDS011;35499;51.482;4.264;2023-04-24T01:06:02;12.07;;;2.42;;
49592;SDS011;35499;51.482;4.264;2023-04-24T01:08:27;8.35;;;3.30;;
49592;SDS011;35499;51.482;4.264;2023-04-24T01:10:53;11.82;;;4.32;;
49592;SDS011;35499;51.482;4.264;2023-04-24T01:13:20;9.90;;;3.97;;
49592;SDS011;35499;51.482;4.264;2023-04-24T01:15:45;17.63;;;4.20;;
49592;SDS011;35499;51.482;4.264;2023-04-24T01:18:11;19.45;;;4.88;;
49592;SDS011;35499;51.482;4.264;2023-04-24T01:20:37;9.70;;;3.60;;
49592;SDS011;35499;51.482;4.264;2023-04-24T01:23:05;8.60;;;3.75;;
49592;SDS011;35499;51.482;4.264;2023-04-24T01:25:31;11.35;;;4.75;;
49592;SDS011;35499;51.482;4.264;2023-04-24T01:27:56;9.70;;;4.30;;
49592;SDS011;35499;51.482;4.264;2023-04-24T01:30:22;7.68;;;3.03;;
49592;SDS011;35499;51.482;4.264;2023-04-24T01:32:47;8.38;;;3.28;;
49592;SDS011;35499;51.482;4.264;2023-04-24T01:35:13;6.75;;;3.38;;
49592;SDS011;35499;51.482;4.264;2023-04-24T01:37:39;10.52;;;3.70;;
49592;SDS011;35499;51.482;4.264;2023-04-24T01:40:05;6.85;;;2.42;;
49592;SDS011;35499;51.482;4.264;2023-04-24T01:42:32;7.25;;;2.53;;
49592;SDS011;35499;51.482;4.264;2023-04-24T01:44:57;7.55;;;2.50;;
49592;SDS011;35499;51.482;4.264;2023-04-24T01:47:23;5.75;;;1.88;;
49592;SDS011;35499;51.482;4.264;2023-04-24T01:49:49;3.75;;;1.63;;
49592;SDS011;35499;51.482;4.264;2023-04-24T01:52:15;6.18;;;2.00;;
49592;SDS011;35499;51.482;4.264;2023-04-24T01:54:42;5.80;;;1.80;;
49592;SDS011;35499;51.482;4.264;2023-04-24T01:57:07;4.47;;;2.20;;
49592;SDS011;35499;51.482;4.264;2023-04-24T01:59:33;4.30;;;1.60;;
49592;SDS011;35499;51.482;4.264;2023-04-24T02:01:59;3.25;;;1.15;;
49592;SDS011;35499;51.482;4.264;2023-04-24T02:04:24;4.43;;;1.60;;
49592;SDS011;35499;51.482;4.264;2023-04-24T02:06:50;3.43;;;1.60;;
49592;SDS011;35499;51.482;4.264;2023-04-24T02:09:15;2.45;;;1.05;;
49592;SDS011;35499;51.482;4.264;2023-04-24T02:11:40;2.87;;;1.50;;
49592;SDS011;35499;51.482;4.264;2023-04-24T02:14:06;3.43;;;1.67;;
49592;SDS011;35499;51.482;4.264;2023-04-24T02:16:31;4.93;;;1.37;;
49592;SDS011;35499;51.482;4.264;2023-04-24T02:19:01;4.25;;;1.83;;
49592;SDS011;35499;51.482;4.264;2023-04-24T02:21:26;5.55;;;1.73;;
49592;SDS011;35499;51.482;4.264;2023-04-24T02:23:52;4.07;;;1.83;;
49592;SDS011;35499;51.482;4.264;2023-04-24T02:26:18;3.92;;;1.60;;
49592;SDS011;35499;51.482;4.264;2023-04-24T02:28:43;4.20;;;1.90;;
49592;SDS011;35499;51.482;4.264;2023-04-24T02:31:09;5.93;;;1.92;;
49592;SDS011;35499;51.482;4.264;2023-04-24T02:33:34;5.30;;;1.73;;
49592;SDS011;35499;51.482;4.264;2023-04-24T02:36:00;6.88;;;1.85;;
49592;SDS011;35499;51.482;4.264;2023-04-24T02:38:26;3.75;;;1.98;;
49592;SDS011;35499;51.482;4.264;2023-04-24T02:40:51;5.77;;;1.87;;
49592;SDS011;35499;51.482;4.264;2023-04-24T02:43:17;7.70;;;1.92;;
49592;SDS011;35499;51.482;4.264;2023-04-24T02:45:42;7.57;;;2.37;;
49592;SDS011;35499;51.482;4.264;2023-04-24T02:48:07;4.10;;;1.67;;
49592;SDS011;35499;51.482;4.264;2023-04-24T02:50:32;3.83;;;2.00;;
49592;SDS011;35499;51.482;4.264;2023-04-24T02:52:58;5.32;;;1.70;;
49592;SDS011;35499;51.482;4.264;2023-04-24T02:55:23;6.80;;;1.83;;
49592;SDS011;35499;51.482;4.264;2023-04-24T02:57:50;8.50;;;2.15;;
49592;SDS011;35499;51.482;4.264;2023-04-24T03:00:15;7.53;;;2.33;;
49592;SDS011;35499;51.482;4.264;2023-04-24T03:02:40;5.38;;;1.63;;
49592;SDS011;35499;51.482;4.264;2023-04-24T03:05:06;5.57;;;1.77;;
49592;SDS011;35499;51.482;4.264;2023-04-24T03:07:32;8.95;;;2.28;;
49592;SDS011;35499;51.482;4.264;2023-04-24T03:09:57;7.20;;;1.92;;
49592;SDS011;35499;51.482;4.264;2023-04-24T03:12:23;4.22;;;1.17;;
49592;SDS011;35499;51.482;4.264;2023-04-24T03:14:49;7.20;;;2.10;;
49592;SDS011;35499;51.482;4.264;2023-04-24T03:17:14;7.75;;;1.75;;
49592;SDS011;35499;51.482;4.264;2023-04-24T03:19:40;3.28;;;1.20;;
49592;SDS011;35499;51.482;4.264;2023-04-24T03:22:05;7.05;;;1.98;;
49592;SDS011;35499;51.482;4.264;2023-04-24T03:24:30;5.20;;;1.40;;
49592;SDS011;35499;51.482;4.264;2023-04-24T03:26:56;5.00;;;1.55;;
49592;SDS011;35499;51.482;4.264;2023-04-24T03:29:22;5.45;;;1.60;;
49592;SDS011;35499;51.482;4.264;2023-04-24T03:31:47;6.30;;;1.50;;
49592;SDS011;35499;51.482;4.264;2023-04-24T03:34:12;4.67;;;1.60;;
49592;SDS011;35499;51.482;4.264;2023-04-24T03:36:38;4.30;;;1.23;;
49592;SDS011;35499;51.482;4.264;2023-04-24T03:39:03;4.87;;;1.40;;
49592;SDS011;35499;51.482;4.264;2023-04-24T03:41:28;6.43;;;1.57;;
49592;SDS011;35499;51.482;4.264;2023-04-24T03:43:55;6.10;;;1.65;;
49592;SDS011;35499;51.482;4.264;2023-04-24T03:46:20;6.03;;;2.22;;
49592;SDS011;35499;51.482;4.264;2023-04-24T03:48:45;6.00;;;1.63;;
49592;SDS011;35499;51.482;4.264;2023-04-24T03:51:11;4.17;;;1.20;;
49592;SDS011;35499;51.482;4.264;2023-04-24T03:53:36;6.77;;;1.67;;
49592;SDS011;35499;51.482;4.264;2023-04-24T03:56:01;4.27;;;1.77;;
49592;SDS011;35499;51.482;4.264;2023-04-24T03:58:27;10.80;;;2.10;;
49592;SDS011;35499;51.482;4.264;2023-04-24T04:00:52;8.57;;;2.70;;
49592;SDS011;35499;51.482;4.264;2023-04-24T04:03:17;9.07;;;2.13;;
49592;SDS011;35499;51.482;4.264;2023-04-24T04:05:43;3.90;;;1.63;;
49592;SDS011;35499;51.482;4.264;2023-04-24T04:08:08;3.97;;;1.98;;
49592;SDS011;35499;51.482;4.264;2023-04-24T04:10:33;5.00;;;2.07;;
49592;SDS011;35499;51.482;4.264;2023-04-24T04:12:58;6.57;;;2.23;;
49592;SDS011;35499;51.482;4.264;2023-04-24T04:15:25;9.32;;;2.15;;
49592;SDS011;35499;51.482;4.264;2023-04-24T04:17:50;6.55;;;1.73;;
49592;SDS011;35499;51.482;4.264;2023-04-24T04:20:15;5.75;;;2.95;;
49592;SDS011;35499;51.482;4.264;2023-04-24T04:22:41;5.53;;;2.13;;
49592;SDS011;35499;51.482;4.264;2023-04-24T04:25:06;10.83;;;3.13;;
49592;SDS011;35499;51.482;4.264;2023-04-24T04:27:32;7.05;;;2.90;;
49592;SDS011;35499;51.482;4.264;2023-04-24T04:29:58;5.78;;;2.90;;
49592;SDS011;35499;51.482;4.264;2023-04-24T04:32:27;6.22;;;4.40;;
49592;SDS011;35499;51.482;4.264;2023-04-24T04:34:53;6.27;;;2.83;;
49592;SDS011;35499;51.482;4.264;2023-04-24T04:37:18;7.43;;;2.73;;
49592;SDS011;35499;51.482;4.264;2023-04-24T04:39:44;9.18;;;4.05;;
49592;SDS011;35499;51.482;4.264;2023-04-24T04:42:09;12.83;;;3.93;;
49592;SDS011;35499;51.482;4.264;2023-04-24T04:44:34;15.07;;;4.07;;
49592;SDS011;35499;51.482;4.264;2023-04-24T04:47:00;9.00;;;3.13;;
49592;SDS011;35499;51.482;4.264;2023-04-24T04:49:28;13.48;;;4.85;;
49592;SDS011;35499;51.482;4.264;2023-04-24T04:51:54;11.85;;;3.95;;
49592;SDS011;35499;51.482;4.264;2023-04-24T04:54:19;11.18;;;4.85;;
49592;SDS011;35499;51.482;4.264;2023-04-24T04:56:44;11.93;;;5.90;;
49592;SDS011;35499;51.482;4.264;2023-04-24T04:59:10;16.70;;;4.97;;
49592;SDS011;35499;51.482;4.264;2023-04-24T05:01:35;10.85;;;4.00;;
49592;SDS011;35499;51.482;4.264;2023-04-24T05:04:01;10.63;;;2.92;;
49592;SDS011;35499;51.482;4.264;2023-04-24T05:06:27;16.30;;;4.70;;
49592;SDS011;35499;51.482;4.264;2023-04-24T05:08:52;14.05;;;4.35;;
49592;SDS011;35499;51.482;4.264;2023-04-24T05:11:22;13.50;;;4.90;;
49592;SDS011;35499;51.482;4.264;2023-04-24T05:13:47;8.13;;;3.58;;
49592;SDS011;35499;51.482;4.264;2023-04-24T05:16:13;8.03;;;3.23;;
49592;SDS011;35499;51.482;4.264;2023-04-24T05:18:38;14.83;;;5.30;;
49592;SDS011;35499;51.482;4.264;2023-04-24T05:21:03;8.97;;;3.73;;
49592;SDS011;35499;51.482;4.264;2023-04-24T05:23:28;12.52;;;5.38;;
49592;SDS011;35499;51.482;4.264;2023-04-24T05:25:54;5.63;;;3.23;;
49592;SDS011;35499;51.482;4.264;2023-04-24T05:28:19;9.60;;;3.92;;
49592;SDS011;35499;51.482;4.264;2023-04-24T05:30:45;10.82;;;3.75;;
49592;SDS011;35499;51.482;4.264;2023-04-24T05:33:11;12.13;;;3.53;;
49592;SDS011;35499;51.482;4.264;2023-04-24T05:35:36;9.20;;;2.65;;
49592;SDS011;35499;51.482;4.264;2023-04-24T05:38:01;7.43;;;2.90;;
49592;SDS011;35499;51.482;4.264;2023-04-24T05:40:28;11.13;;;3.47;;
49592;SDS011;35499;51.482;4.264;2023-04-24T05:42:53;7.35;;;3.80;;
49592;SDS011;35499;51.482;4.264;2023-04-24T05:45:18;6.80;;;2.95;;
49592;SDS011;35499;51.482;4.264;2023-04-24T05:47:44;8.80;;;3.97;;
49592;SDS011;35499;51.482;4.264;2023-04-24T05:50:10;7.45;;;3.65;;
49592;SDS011;35499;51.482;4.264;2023-04-24T05:52:35;19.45;;;3.65;;
49592;SDS011;35499;51.482;4.264;2023-04-24T05:55:00;6.40;;;2.33;;
49592;SDS011;35499;51.482;4.264;2023-04-24T05:57:26;8.97;;;3.17;;
49592;SDS011;35499;51.482;4.264;2023-04-24T05:59:51;6.40;;;2.83;;
49592;SDS011;35499;51.482;4.264;2023-04-24T06:02:16;15.27;;;5.23;;
49592;SDS011;35499;51.482;4.264;2023-04-24T06:04:42;5.03;;;2.92;;
49592;SDS011;35499;51.482;4.264;2023-04-24T06:07:08;12.90;;;4.20;;
49592;SDS011;35499;51.482;4.264;2023-04-24T06:09:35;11.98;;;3.35;;
49592;SDS011;35499;51.482;4.264;2023-04-24T06:12:00;7.70;;;3.57;;
49592;SDS011;35499;51.482;4.264;2023-04-24T06:14:26;13.50;;;5.03;;
49592;SDS011;35499;51.482;4.264;2023-04-24T06:16:51;15.23;;;4.07;;
49592;SDS011;35499;51.482;4.264;2023-04-24T06:19:16;9.03;;;4.07;;
49592;SDS011;35499;51.482;4.264;2023-04-24T06:21:41;11.63;;;4.43;;
49592;SDS011;35499;51.482;4.264;2023-04-24T06:24:07;13.53;;;4.97;;
49592;SDS011;35499;51.482;4.264;2023-04-24T06:26:32;16.77;;;4.30;;
49592;SDS011;35499;51.482;4.264;2023-04-24T06:28:57;12.43;;;3.57;;
49592;SDS011;35499;51.482;4.264;2023-04-24T06:31:24;15.23;;;4.55;;
49592;SDS011;35499;51.482;4.264;2023-04-24T06:33:49;12.10;;;3.87;;
49592;SDS011;35499;51.482;4.264;2023-04-24T06:36:15;15.73;;;3.85;;
49592;SDS011;35499;51.482;4.264;2023-04-24T06:38:41;14.00;;;4.05;;
49592;SDS011;35499;51.482;4.264;2023-04-24T06:41:06;14.23;;;3.90;;
49592;SDS011;35499;51.482;4.264;2023-04-24T06:43:31;11.77;;;3.45;;
49592;SDS011;35499;51.482;4.264;2023-04-24T06:45:57;11.27;;;2.90;;
49592;SDS011;35499;51.482;4.264;2023-04-24T06:48:23;9.75;;;2.45;;
49592;SDS011;35499;51.482;4.264;2023-04-24T06:50:50;14.55;;;2.35;;
49592;SDS011;35499;51.482;4.264;2023-04-24T06:53:15;8.80;;;1.85;;
49592;SDS011;35499;51.482;4.264;2023-04-24T06:55:44;10.73;;;2.15;;
49592;SDS011;35499;51.482;4.264;2023-04-24T06:58:12;12.50;;;2.75;;
49592;SDS011;35499;51.482;4.264;2023-04-24T07:00:37;9.27;;;1.88;;
49592;SDS011;35499;51.482;4.264;2023-04-24T07:03:03;16.10;;;2.17;;
49592;SDS011;35499;51.482;4.264;2023-04-24T07:05:30;11.98;;;2.65;;
49592;SDS011;35499;51.482;4.264;2023-04-24T07:07:55;10.35;;;1.65;;
49592;SDS011;35499;51.482;4.264;2023-04-24T07:10:23;7.22;;;2.03;;
49592;SDS011;35499;51.482;4.264;2023-04-24T07:12:49;10.98;;;1.98;;
49592;SDS011;35499;51.482;4.264;2023-04-24T07:15:14;8.88;;;1.60;;
49592;SDS011;35499;51.482;4.264;2023-04-24T07:17:40;13.32;;;2.13;;
49592;SDS011;35499;51.482;4.264;2023-04-24T07:20:08;10.73;;;1.60;;
49592;SDS011;35499;51.482;4.264;2023-04-24T07:22:35;12.45;;;1.42;;
49592;SDS011;35499;51.482;4.264;2023-04-24T07:25:00;6.57;;;1.10;;
49592;SDS011;35499;51.482;4.264;2023-04-24T07:27:26;6.70;;;2.10;;
49592;SDS011;35499;51.482;4.264;2023-04-24T07:29:51;9.70;;;2.07;;
49592;SDS011;35499;51.482;4.264;2023-04-24T07:32:16;13.97;;;2.30;;
49592;SDS011;35499;51.482;4.264;2023-04-24T07:34:42;7.83;;;1.50;;
49592;SDS011;35499;51.482;4.264;2023-04-24T07:37:07;4.40;;;1.40;;
49592;SDS011;35499;51.482;4.264;2023-04-24T07:39:32;9.13;;;2.07;;
49592;SDS011;35499;51.482;4.264;2023-04-24T07:41:58;5.85;;;1.85;;
49592;SDS011;35499;51.482;4.264;2023-04-24T07:44:24;10.52;;;1.88;;
49592;SDS011;35499;51.482;4.264;2023-04-24T07:46:49;7.43;;;1.63;;
49592;SDS011;35499;51.482;4.264;2023-04-24T07:49:14;12.40;;;1.50;;
49592;SDS011;35499;51.482;4.264;2023-04-24T07:51:40;8.00;;;1.67;;
49592;SDS011;35499;51.482;4.264;2023-04-24T07:54:06;4.95;;;1.55;;
49592;SDS011;35499;51.482;4.264;2023-04-24T07:56:31;9.93;;;2.03;;
49592;SDS011;35499;51.482;4.264;2023-04-24T07:58:57;5.85;;;1.35;;
49592;SDS011;35499;51.482;4.264;2023-04-24T08:01:23;9.65;;;2.90;;
49592;SDS011;35499;51.482;4.264;2023-04-24T08:03:48;4.93;;;1.10;;
49592;SDS011;35499;51.482;4.264;2023-04-24T08:06:13;4.23;;;0.80;;
49592;SDS011;35499;51.482;4.264;2023-04-24T08:08:39;8.43;;;1.98;;
49592;SDS011;35499;51.482;4.264;2023-04-24T08:11:04;3.83;;;1.20;;
49592;SDS011;35499;51.482;4.264;2023-04-24T08:13:30;11.13;;;1.52;;
49592;SDS011;35499;51.482;4.264;2023-04-24T08:15:56;9.43;;;1.40;;
49592;SDS011;35499;51.482;4.264;2023-04-24T08:18:22;11.35;;;1.70;;
49592;SDS011;35499;51.482;4.264;2023-04-24T08:20:47;5.20;;;1.08;;
49592;SDS011;35499;51.482;4.264;2023-04-24T08:23:12;9.20;;;1.53;;
49592;SDS011;35499;51.482;4.264;2023-04-24T08:25:38;8.15;;;1.88;;
49592;SDS011;35499;51.482;4.264;2023-04-24T08:28:05;8.50;;;1.80;;
49592;SDS011;35499;51.482;4.264;2023-04-24T08:30:31;6.85;;;1.17;;
49592;SDS011;35499;51.482;4.264;2023-04-24T08:32:56;2.88;;;0.68;;
49592;SDS011;35499;51.482;4.264;2023-04-24T08:35:22;3.20;;;0.65;;
49592;SDS011;35499;51.482;4.264;2023-04-24T08:37:48;6.65;;;1.05;;
49592;SDS011;35499;51.482;4.264;2023-04-24T08:40:14;3.65;;;0.80;;
49592;SDS011;35499;51.482;4.264;2023-04-24T08:42:43;3.25;;;1.00;;
49592;SDS011;35499;51.482;4.264;2023-04-24T08:45:12;6.90;;;1.15;;
49592;SDS011;35499;51.482;4.264;2023-04-24T08:47:38;3.53;;;1.08;;
49592;SDS011;35499;51.482;4.264;2023-04-24T08:50:05;8.20;;;1.40;;
49592;SDS011;35499;51.482;4.264;2023-04-24T08:54:57;8.18;;;0.90;;
49592;SDS011;35499;51.482;4.264;2023-04-24T08:57:24;2.85;;;0.88;;
49592;SDS011;35499;51.482;4.264;2023-04-24T08:59:51;2.67;;;0.70;;
49592;SDS011;35499;51.482;4.264;2023-04-24T09:04:35;2.70;;;0.77;;
49592;SDS011;35499;51.482;4.264;2023-04-24T09:07:01;5.60;;;0.60;;
49592;SDS011;35499;51.482;4.264;2023-04-24T09:09:28;3.20;;;0.57;;
49592;SDS011;35499;51.482;4.264;2023-04-24T09:11:55;3.33;;;0.60;;
49592;SDS011;35499;51.482;4.264;2023-04-24T09:14:22;3.28;;;0.60;;
49592;SDS011;35499;51.482;4.264;2023-04-24T09:16:48;2.22;;;0.40;;
49592;SDS011;35499;51.482;4.264;2023-04-24T09:19:14;2.35;;;0.57;;
49592;SDS011;35499;51.482;4.264;2023-04-24T09:21:40;2.55;;;0.93;;
49592;SDS011;35499;51.482;4.264;2023-04-24T09:26:42;5.47;;;0.57;;
49592;SDS011;35499;51.482;4.264;2023-04-24T09:29:08;0.82;;;0.30;;
49592;SDS011;35499;51.482;4.264;2023-04-24T09:31:40;4.00;;;0.90;;
49592;SDS011;35499;51.482;4.264;2023-04-24T09:34:05;5.47;;;0.70;;
49592;SDS011;35499;51.482;4.264;2023-04-24T09:36:32;3.87;;;0.60;;
49592;SDS011;35499;51.482;4.264;2023-04-24T09:39:05;3.25;;;0.55;;
49592;SDS011;35499;51.482;4.264;2023-04-24T09:41:33;5.40;;;0.93;;
49592;SDS011;35499;51.482;4.264;2023-04-24T09:44:14;3.60;;;0.30;;
49592;SDS011;35499;51.482;4.264;2023-04-24T09:46:46;1.73;;;0.60;;
49592;SDS011;35499;51.482;4.264;2023-04-24T09:49:15;8.55;;;0.65;;
49592;SDS011;35499;51.482;4.264;2023-04-24T09:51:45;3.55;;;1.10;;
49592;SDS011;35499;51.482;4.264;2023-04-24T09:54:13;4.80;;;0.90;;
49592;SDS011;35499;51.482;4.264;2023-04-24T09:56:42;1.95;;;0.70;;
49592;SDS011;35499;51.482;4.264;2023-04-24T09:59:11;7.47;;;0.60;;
49592;SDS011;35499;51.482;4.264;2023-04-24T10:01:40;1.80;;;0.45;;
49592;SDS011;35499;51.482;4.264;2023-04-24T10:04:17;2.10;;;0.52;;
49592;SDS011;35499;51.482;4.264;2023-04-24T10:06:44;0.85;;;0.60;;
49592;SDS011;35499;51.482;4.264;2023-04-24T10:09:11;2.60;;;0.63;;
49592;SDS011;35499;51.482;4.264;2023-04-24T10:11:40;4.22;;;0.50;;
49592;SDS011;35499;51.482;4.264;2023-04-24T10:14:09;3.95;;;0.40;;
49592;SDS011;35499;51.482;4.264;2023-04-24T10:16:35;1.65;;;0.70;;
49592;SDS011;35499;51.482;4.264;2023-04-24T10:19:02;1.83;;;0.82;;
49592;SDS011;35499;51.482;4.264;2023-04-24T10:21:28;1.23;;;0.30;;
49592;SDS011;35499;51.482;4.264;2023-04-24T10:23:53;2.33;;;0.40;;
49592;SDS011;35499;51.482;4.264;2023-04-24T10:26:19;4.78;;;0.75;;
49592;SDS011;35499;51.482;4.264;2023-04-24T10:28:45;1.65;;;0.30;;
49592;SDS011;35499;51.482;4.264;2023-04-24T10:31:11;4.47;;;0.70;;
49592;SDS011;35499;51.482;4.264;2023-04-24T10:33:38;2.85;;;0.65;;
49592;SDS011;35499;51.482;4.264;2023-04-24T10:36:06;2.17;;;0.63;;
49592;SDS011;35499;51.482;4.264;2023-04-24T10:38:34;3.58;;;0.57;;
49592;SDS011;35499;51.482;4.264;2023-04-24T10:41:06;3.90;;;1.50;;
49592;SDS011;35499;51.482;4.264;2023-04-24T10:43:34;4.18;;;0.80;;
49592;SDS011;35499;51.482;4.264;2023-04-24T10:46:03;1.48;;;0.32;;
49592;SDS011;35499;51.482;4.264;2023-04-24T10:48:30;3.78;;;0.90;;
49592;SDS011;35499;51.482;4.264;2023-04-24T10:50:57;8.10;;;0.77;;
49592;SDS011;35499;51.482;4.264;2023-04-24T10:53:23;2.75;;;0.40;;
49592;SDS011;35499;51.482;4.264;2023-04-24T10:58:23;2.65;;;0.57;;
49592;SDS011;35499;51.482;4.264;2023-04-24T11:00:56;4.60;;;0.40;;
49592;SDS011;35499;51.482;4.264;2023-04-24T11:06:03;2.42;;;0.32;;
49592;SDS011;35499;51.482;4.264;2023-04-24T11:08:42;1.38;;;0.38;;
49592;SDS011;35499;51.482;4.264;2023-04-24T11:11:13;2.03;;;0.70;;
49592;SDS011;35499;51.482;4.264;2023-04-24T11:19:03;4.65;;;0.60;;
49592;SDS011;35499;51.482;4.264;2023-04-24T11:21:31;4.68;;;0.85;;
49592;SDS011;35499;51.482;4.264;2023-04-24T11:23:57;5.20;;;1.13;;
49592;SDS011;35499;51.482;4.264;2023-04-24T11:26:23;2.95;;;0.60;;
49592;SDS011;35499;51.482;4.264;2023-04-24T11:29:05;5.07;;;0.82;;
49592;SDS011;35499;51.482;4.264;2023-04-24T11:31:36;3.80;;;0.47;;
49592;SDS011;35499;51.482;4.264;2023-04-24T11:34:10;3.55;;;0.68;;
49592;SDS011;35499;51.482;4.264;2023-04-24T11:36:38;4.75;;;0.90;;
49592;SDS011;35499;51.482;4.264;2023-04-24T11:39:04;4.07;;;0.60;;
49592;SDS011;35499;51.482;4.264;2023-04-24T11:41:29;2.15;;;0.75;;
49592;SDS011;35499;51.482;4.264;2023-04-24T11:43:55;3.05;;;0.50;;
49592;SDS011;35499;51.482;4.264;2023-04-24T11:46:21;3.55;;;0.80;;
49592;SDS011;35499;51.482;4.264;2023-04-24T11:48:47;2.33;;;0.68;;
49592;SDS011;35499;51.482;4.264;2023-04-24T11:51:13;2.47;;;0.50;;
49592;SDS011;35499;51.482;4.264;2023-04-24T11:53:39;3.35;;;0.52;;
49592;SDS011;35499;51.482;4.264;2023-04-24T11:56:04;2.17;;;0.60;;
49592;SDS011;35499;51.482;4.264;2023-04-24T11:58:40;5.35;;;0.88;;
49592;SDS011;35499;51.482;4.264;2023-04-24T12:01:05;3.63;;;1.02;;
49592;SDS011;35499;51.482;4.264;2023-04-24T12:03:30;3.57;;;0.93;;
49592;SDS011;35499;51.482;4.264;2023-04-24T12:06:05;4.95;;;1.08;;
49592;SDS011;35499;51.482;4.264;2023-04-24T12:08:34;3.53;;;0.80;;
49592;SDS011;35499;51.482;4.264;2023-04-24T12:11:00;2.15;;;0.70;;
49592;SDS011;35499;51.482;4.264;2023-04-24T12:13:26;5.75;;;0.80;;
49592;SDS011;35499;51.482;4.264;2023-04-24T12:15:52;2.63;;;0.77;;
49592;SDS011;35499;51.482;4.264;2023-04-24T12:18:17;2.08;;;1.20;;
49592;SDS011;35499;51.482;4.264;2023-04-24T12:20:43;8.20;;;1.08;;
49592;SDS011;35499;51.482;4.264;2023-04-24T12:23:08;1.40;;;0.60;;
49592;SDS011;35499;51.482;4.264;2023-04-24T12:25:33;9.85;;;1.05;;
49592;SDS011;35499;51.482;4.264;2023-04-24T12:30:28;2.45;;;0.70;;
49592;SDS011;35499;51.482;4.264;2023-04-24T12:32:56;2.17;;;0.93;;
49592;SDS011;35499;51.482;4.264;2023-04-24T12:35:23;2.00;;;1.20;;
49592;SDS011;35499;51.482;4.264;2023-04-24T12:37:50;2.75;;;0.70;;
49592;SDS011;35499;51.482;4.264;2023-04-24T12:40:16;4.07;;;1.00;;
49592;SDS011;35499;51.482;4.264;2023-04-24T12:42:46;2.35;;;0.85;;
49592;SDS011;35499;51.482;4.264;2023-04-24T12:45:13;2.95;;;0.77;;
49592;SDS011;35499;51.482;4.264;2023-04-24T12:47:40;4.57;;;1.00;;
49592;SDS011;35499;51.482;4.264;2023-04-24T12:50:10;3.33;;;1.00;;
49592;SDS011;35499;51.482;4.264;2023-04-24T12:52:36;3.72;;;0.90;;
49592;SDS011;35499;51.482;4.264;2023-04-24T12:55:02;5.22;;;1.20;;
49592;SDS011;35499;51.482;4.264;2023-04-24T12:57:29;10.52;;;1.65;;
49592;SDS011;35499;51.482;4.264;2023-04-24T12:59:56;5.75;;;1.38;;
49592;SDS011;35499;51.482;4.264;2023-04-24T13:02:24;2.90;;;1.05;;
49592;SDS011;35499;51.482;4.264;2023-04-24T13:04:50;9.95;;;1.35;;
49592;SDS011;35499;51.482;4.264;2023-04-24T13:07:15;3.05;;;0.70;;
49592;SDS011;35499;51.482;4.264;2023-04-24T13:09:41;7.30;;;0.88;;
49592;SDS011;35499;51.482;4.264;2023-04-24T13:12:08;3.05;;;1.10;;
49592;SDS011;35499;51.482;4.264;2023-04-24T13:14:33;3.67;;;1.10;;
49592;SDS011;35499;51.482;4.264;2023-04-24T13:16:59;3.50;;;1.05;;
49592;SDS011;35499;51.482;4.264;2023-04-24T13:19:25;5.63;;;1.35;;
49592;SDS011;35499;51.482;4.264;2023-04-24T13:21:52;3.63;;;0.95;;
49592;SDS011;35499;51.482;4.264;2023-04-24T13:24:18;4.43;;;0.75;;
49592;SDS011;35499;51.482;4.264;2023-04-24T13:26:43;2.65;;;0.60;;
49592;SDS011;35499;51.482;4.264;2023-04-24T13:29:09;2.17;;;0.52;;
49592;SDS011;35499;51.482;4.264;2023-04-24T13:31:34;1.95;;;0.60;;
49592;SDS011;35499;51.482;4.264;2023-04-24T13:34:00;3.22;;;0.63;;
49592;SDS011;35499;51.482;4.264;2023-04-24T13:36:25;3.10;;;1.02;;
49592;SDS011;35499;51.482;4.264;2023-04-24T13:38:51;5.38;;;1.25;;
49592;SDS011;35499;51.482;4.264;2023-04-24T13:41:16;2.93;;;0.77;;
49592;SDS011;35499;51.482;4.264;2023-04-24T13:43:41;3.37;;;0.70;;
49592;SDS011;35499;51.482;4.264;2023-04-24T13:46:07;3.33;;;0.90;;
49592;SDS011;35499;51.482;4.264;2023-04-24T13:48:36;3.92;;;0.88;;
49592;SDS011;35499;51.482;4.264;2023-04-24T13:51:01;2.15;;;0.70;;
49592;SDS011;35499;51.482;4.264;2023-04-24T13:53:27;3.35;;;0.75;;
49592;SDS011;35499;51.482;4.264;2023-04-24T13:55:52;3.07;;;0.97;;
49592;SDS011;35499;51.482;4.264;2023-04-24T13:58:17;1.97;;;0.73;;
49592;SDS011;35499;51.482;4.264;2023-04-24T14:00:43;3.53;;;0.80;;
49592;SDS011;35499;51.482;4.264;2023-04-24T14:03:08;3.10;;;0.70;;
49592;SDS011;35499;51.482;4.264;2023-04-24T14:05:33;3.78;;;0.70;;
49592;SDS011;35499;51.482;4.264;2023-04-24T14:07:59;3.30;;;0.80;;
49592;SDS011;35499;51.482;4.264;2023-04-24T14:10:24;2.90;;;1.02;;
49592;SDS011;35499;51.482;4.264;2023-04-24T14:12:50;2.08;;;0.70;;
49592;SDS011;35499;51.482;4.264;2023-04-24T14:15:16;4.10;;;1.13;;
49592;SDS011;35499;51.482;4.264;2023-04-24T14:17:41;4.57;;;1.20;;
49592;SDS011;35499;51.482;4.264;2023-04-24T14:20:07;4.03;;;1.05;;
49592;SDS011;35499;51.482;4.264;2023-04-24T14:22:33;2.38;;;0.70;;
49592;SDS011;35499;51.482;4.264;2023-04-24T14:24:59;5.97;;;0.95;;
49592;SDS011;35499;51.482;4.264;2023-04-24T14:27:25;2.10;;;0.70;;
49592;SDS011;35499;51.482;4.264;2023-04-24T14:29:51;3.10;;;0.70;;
49592;SDS011;35499;51.482;4.264;2023-04-24T14:32:17;3.38;;;1.35;;
49592;SDS011;35499;51.482;4.264;2023-04-24T14:34:42;4.27;;;1.00;;
49592;SDS011;35499;51.482;4.264;2023-04-24T14:37:07;3.90;;;0.73;;
49592;SDS011;35499;51.482;4.264;2023-04-24T14:39:33;4.35;;;1.77;;
49592;SDS011;35499;51.482;4.264;2023-04-24T14:41:58;3.57;;;1.23;;
49592;SDS011;35499;51.482;4.264;2023-04-24T14:44:24;4.38;;;1.05;;
49592;SDS011;35499;51.482;4.264;2023-04-24T14:46:49;8.13;;;1.77;;
49592;SDS011;35499;51.482;4.264;2023-04-24T14:49:15;3.13;;;1.23;;
49592;SDS011;35499;51.482;4.264;2023-04-24T14:51:40;6.20;;;1.07;;
49592;SDS011;35499;51.482;4.264;2023-04-24T14:54:06;5.05;;;1.85;;
49592;SDS011;35499;51.482;4.264;2023-04-24T14:56:31;3.53;;;1.48;;
49592;SDS011;35499;51.482;4.264;2023-04-24T14:58:57;7.40;;;1.00;;
49592;SDS011;35499;51.482;4.264;2023-04-24T15:01:22;4.47;;;1.10;;